sensor_id;sensor_type;location;lat;lon;timestamp;P1;durP1;ratioP1;P2;durP2;ratioP2
71148;SDS011;59072;42.144;25.200;2023-04-15T00:00:14;10.88;;;4.60;;
71148;SDS011;59072;42.144;25.200;2023-04-15T00:02:41;9.30;;;4.90;;
71148;SDS011;59072;42.144;25.200;2023-04-15T00:05:06;10.10;;;5.53;;
71148;SDS011;59072;42.144;25.200;2023-04-15T00:07:32;7.38;;;4.47;;
71148;SDS011;59072;42.144;25.200;2023-04-15T00:09:58;9.32;;;4.28;;
71148;SDS011;59072;42.144;25.200;2023-04-15T00:12:24;6.75;;;3.58;;
71148;SDS011;59072;42.144;25.200;2023-04-15T00:14:51;6.38;;;3.47;;
71148;SDS011;59072;42.144;25.200;2023-04-15T00:17:17;7.78;;;3.70;;
71148;SDS011;59072;42.144;25.200;2023-04-15T00:19:42;7.15;;;3.72;;
71148;SDS011;59072;42.144;25.200;2023-04-15T00:22:09;7.78;;;3.38;;
71148;SDS011;59072;42.144;25.200;2023-04-15T00:24:36;9.10;;;3.05;;
71148;SDS011;59072;42.144;25.200;2023-04-15T00:27:01;6.65;;;3.20;;
71148;SDS011;59072;42.144;25.200;2023-04-15T00:29:27;7.55;;;3.22;;
71148;SDS011;59072;42.144;25.200;2023-04-15T00:31:53;6.95;;;2.90;;
71148;SDS011;59072;42.144;25.200;2023-04-15T00:34:19;7.47;;;3.55;;
71148;SDS011;59072;42.144;25.200;2023-04-15T00:36:44;8.70;;;3.53;;
71148;SDS011;59072;42.144;25.200;2023-04-15T00:39:10;5.93;;;3.25;;
71148;SDS011;59072;42.144;25.200;2023-04-15T00:41:35;7.97;;;3.38;;
71148;SDS011;59072;42.144;25.200;2023-04-15T00:44:03;6.90;;;3.38;;
71148;SDS011;59072;42.144;25.200;2023-04-15T00:46:30;7.10;;;3.53;;
71148;SDS011;59072;42.144;25.200;2023-04-15T00:48:59;8.10;;;3.45;;
71148;SDS011;59072;42.144;25.200;2023-04-15T00:51:28;8.30;;;3.60;;
71148;SDS011;59072;42.144;25.200;2023-04-15T00:53:53;6.45;;;3.47;;
71148;SDS011;59072;42.144;25.200;2023-04-15T00:56:19;8.00;;;3.25;;
71148;SDS011;59072;42.144;25.200;2023-04-15T00:58:48;6.32;;;3.35;;
71148;SDS011;59072;42.144;25.200;2023-04-15T01:01:15;9.13;;;3.72;;
71148;SDS011;59072;42.144;25.200;2023-04-15T01:03:41;6.90;;;3.42;;
71148;SDS011;59072;42.144;25.200;2023-04-15T01:06:07;6.05;;;3.80;;
71148;SDS011;59072;42.144;25.200;2023-04-15T01:08:32;7.70;;;3.75;;
71148;SDS011;59072;42.144;25.200;2023-04-15T01:10:59;10.18;;;4.65;;
71148;SDS011;59072;42.144;25.200;2023-04-15T01:13:27;10.90;;;4.70;;
71148;SDS011;59072;42.144;25.200;2023-04-15T01:15:53;7.50;;;3.72;;
71148;SDS011;59072;42.144;25.200;2023-04-15T01:18:20;7.78;;;4.00;;
71148;SDS011;59072;42.144;25.200;2023-04-15T01:20:47;11.77;;;5.15;;
71148;SDS011;59072;42.144;25.200;2023-04-15T01:23:13;10.82;;;5.50;;
71148;SDS011;59072;42.144;25.200;2023-04-15T01:25:38;11.15;;;4.72;;
71148;SDS011;59072;42.144;25.200;2023-04-15T01:28:06;12.90;;;5.63;;
71148;SDS011;59072;42.144;25.200;2023-04-15T01:30:33;10.30;;;5.15;;
71148;SDS011;59072;42.144;25.200;2023-04-15T01:32:59;12.32;;;4.70;;
71148;SDS011;59072;42.144;25.200;2023-04-15T01:35:25;7.80;;;4.13;;
71148;SDS011;59072;42.144;25.200;2023-04-15T01:37:51;8.38;;;3.90;;
71148;SDS011;59072;42.144;25.200;2023-04-15T01:40:18;8.73;;;3.42;;
71148;SDS011;59072;42.144;25.200;2023-04-15T01:42:44;7.72;;;3.72;;
71148;SDS011;59072;42.144;25.200;2023-04-15T01:45:10;7.55;;;3.67;;
71148;SDS011;59072;42.144;25.200;2023-04-15T01:47:37;7.90;;;3.92;;
71148;SDS011;59072;42.144;25.200;2023-04-15T01:50:02;8.02;;;3.80;;
71148;SDS011;59072;42.144;25.200;2023-04-15T01:52:28;7.30;;;3.58;;
71148;SDS011;59072;42.144;25.200;2023-04-15T01:54:53;8.43;;;3.95;;
71148;SDS011;59072;42.144;25.200;2023-04-15T01:57:19;8.63;;;3.65;;
71148;SDS011;59072;42.144;25.200;2023-04-15T01:59:44;9.88;;;3.85;;
71148;SDS011;59072;42.144;25.200;2023-04-15T02:02:10;7.70;;;3.85;;
71148;SDS011;59072;42.144;25.200;2023-04-15T02:04:36;7.18;;;3.85;;
71148;SDS011;59072;42.144;25.200;2023-04-15T02:07:02;9.15;;;4.07;;
71148;SDS011;59072;42.144;25.200;2023-04-15T02:09:27;8.00;;;4.60;;
71148;SDS011;59072;42.144;25.200;2023-04-15T02:11:53;12.18;;;4.90;;
71148;SDS011;59072;42.144;25.200;2023-04-15T02:14:18;9.50;;;5.07;;
71148;SDS011;59072;42.144;25.200;2023-04-15T02:16:44;9.40;;;4.88;;
71148;SDS011;59072;42.144;25.200;2023-04-15T02:19:09;10.27;;;4.50;;
71148;SDS011;59072;42.144;25.200;2023-04-15T02:21:35;9.60;;;4.57;;
71148;SDS011;59072;42.144;25.200;2023-04-15T02:24:00;9.13;;;5.10;;
71148;SDS011;59072;42.144;25.200;2023-04-15T02:26:26;8.23;;;4.75;;
71148;SDS011;59072;42.144;25.200;2023-04-15T02:28:52;7.68;;;3.90;;
71148;SDS011;59072;42.144;25.200;2023-04-15T02:31:18;9.18;;;3.47;;
71148;SDS011;59072;42.144;25.200;2023-04-15T02:33:45;8.25;;;3.80;;
71148;SDS011;59072;42.144;25.200;2023-04-15T02:36:11;8.43;;;4.03;;
71148;SDS011;59072;42.144;25.200;2023-04-15T02:38:36;7.90;;;3.50;;
71148;SDS011;59072;42.144;25.200;2023-04-15T02:41:04;7.82;;;3.40;;
71148;SDS011;59072;42.144;25.200;2023-04-15T02:43:29;9.50;;;3.92;;
71148;SDS011;59072;42.144;25.200;2023-04-15T02:45:55;8.32;;;4.07;;
71148;SDS011;59072;42.144;25.200;2023-04-15T02:48:21;13.05;;;4.80;;
71148;SDS011;59072;42.144;25.200;2023-04-15T02:50:46;7.82;;;4.10;;
71148;SDS011;59072;42.144;25.200;2023-04-15T02:53:12;7.53;;;4.30;;
71148;SDS011;59072;42.144;25.200;2023-04-15T02:55:38;7.05;;;3.90;;
71148;SDS011;59072;42.144;25.200;2023-04-15T02:58:04;8.32;;;4.45;;
71148;SDS011;59072;42.144;25.200;2023-04-15T03:00:30;9.55;;;4.30;;
71148;SDS011;59072;42.144;25.200;2023-04-15T03:02:57;9.93;;;4.80;;
71148;SDS011;59072;42.144;25.200;2023-04-15T03:05:26;9.02;;;4.45;;
71148;SDS011;59072;42.144;25.200;2023-04-15T03:07:51;9.10;;;4.90;;
71148;SDS011;59072;42.144;25.200;2023-04-15T03:10:17;9.85;;;5.28;;
71148;SDS011;59072;42.144;25.200;2023-04-15T03:12:43;12.52;;;5.65;;
71148;SDS011;59072;42.144;25.200;2023-04-15T03:15:08;13.40;;;5.22;;
71148;SDS011;59072;42.144;25.200;2023-04-15T03:17:34;9.35;;;4.57;;
71148;SDS011;59072;42.144;25.200;2023-04-15T03:20:00;7.32;;;4.25;;
71148;SDS011;59072;42.144;25.200;2023-04-15T03:22:27;7.45;;;4.18;;
71148;SDS011;59072;42.144;25.200;2023-04-15T03:24:53;9.48;;;4.95;;
71148;SDS011;59072;42.144;25.200;2023-04-15T03:27:18;10.60;;;4.72;;
71148;SDS011;59072;42.144;25.200;2023-04-15T03:29:44;10.40;;;5.15;;
71148;SDS011;59072;42.144;25.200;2023-04-15T03:32:09;9.90;;;4.57;;
71148;SDS011;59072;42.144;25.200;2023-04-15T03:34:34;10.15;;;4.90;;
71148;SDS011;59072;42.144;25.200;2023-04-15T03:37:00;8.88;;;5.05;;
71148;SDS011;59072;42.144;25.200;2023-04-15T03:39:25;8.40;;;5.50;;
71148;SDS011;59072;42.144;25.200;2023-04-15T03:41:51;10.98;;;7.13;;
71148;SDS011;59072;42.144;25.200;2023-04-15T03:44:16;14.13;;;6.00;;
71148;SDS011;59072;42.144;25.200;2023-04-15T03:46:42;10.30;;;5.93;;
71148;SDS011;59072;42.144;25.200;2023-04-15T03:49:07;9.00;;;6.07;;
71148;SDS011;59072;42.144;25.200;2023-04-15T03:51:33;12.27;;;6.10;;
71148;SDS011;59072;42.144;25.200;2023-04-15T03:53:58;11.40;;;7.13;;
71148;SDS011;59072;42.144;25.200;2023-04-15T03:56:24;10.63;;;5.75;;
71148;SDS011;59072;42.144;25.200;2023-04-15T03:58:49;9.65;;;6.18;;
71148;SDS011;59072;42.144;25.200;2023-04-15T04:01:15;18.40;;;12.38;;
71148;SDS011;59072;42.144;25.200;2023-04-15T04:03:41;20.63;;;16.55;;
71148;SDS011;59072;42.144;25.200;2023-04-15T04:06:06;19.30;;;14.55;;
71148;SDS011;59072;42.144;25.200;2023-04-15T04:08:32;11.48;;;6.55;;
71148;SDS011;59072;42.144;25.200;2023-04-15T04:10:58;74.50;;;54.13;;
71148;SDS011;59072;42.144;25.200;2023-04-15T04:13:23;32.20;;;27.92;;
71148;SDS011;59072;42.144;25.200;2023-04-15T04:15:49;20.52;;;15.43;;
71148;SDS011;59072;42.144;25.200;2023-04-15T04:18:14;12.05;;;6.78;;
71148;SDS011;59072;42.144;25.200;2023-04-15T04:20:40;12.13;;;8.35;;
71148;SDS011;59072;42.144;25.200;2023-04-15T04:23:05;16.33;;;9.80;;
71148;SDS011;59072;42.144;25.200;2023-04-15T04:25:31;13.65;;;9.63;;
71148;SDS011;59072;42.144;25.200;2023-04-15T04:27:57;15.40;;;11.07;;
71148;SDS011;59072;42.144;25.200;2023-04-15T04:30:23;16.80;;;10.43;;
71148;SDS011;59072;42.144;25.200;2023-04-15T04:32:48;19.95;;;15.20;;
71148;SDS011;59072;42.144;25.200;2023-04-15T04:35:15;18.73;;;14.95;;
71148;SDS011;59072;42.144;25.200;2023-04-15T04:37:41;10.50;;;7.22;;
71148;SDS011;59072;42.144;25.200;2023-04-15T04:40:07;11.68;;;6.80;;
71148;SDS011;59072;42.144;25.200;2023-04-15T04:42:33;11.18;;;6.68;;
71148;SDS011;59072;42.144;25.200;2023-04-15T04:44:59;11.65;;;6.65;;
71148;SDS011;59072;42.144;25.200;2023-04-15T04:47:24;11.32;;;7.07;;
71148;SDS011;59072;42.144;25.200;2023-04-15T04:49:50;12.60;;;7.63;;
71148;SDS011;59072;42.144;25.200;2023-04-15T04:52:15;12.90;;;7.38;;
71148;SDS011;59072;42.144;25.200;2023-04-15T04:54:41;12.80;;;8.45;;
71148;SDS011;59072;42.144;25.200;2023-04-15T04:57:06;14.52;;;8.40;;
71148;SDS011;59072;42.144;25.200;2023-04-15T04:59:32;13.23;;;8.13;;
71148;SDS011;59072;42.144;25.200;2023-04-15T05:01:57;12.68;;;7.50;;
71148;SDS011;59072;42.144;25.200;2023-04-15T05:04:23;11.52;;;6.80;;
71148;SDS011;59072;42.144;25.200;2023-04-15T05:06:48;11.55;;;8.27;;
71148;SDS011;59072;42.144;25.200;2023-04-15T05:09:14;11.15;;;7.18;;
71148;SDS011;59072;42.144;25.200;2023-04-15T05:11:40;12.45;;;6.53;;
71148;SDS011;59072;42.144;25.200;2023-04-15T05:14:05;11.40;;;6.38;;
71148;SDS011;59072;42.144;25.200;2023-04-15T05:16:30;11.52;;;6.63;;
71148;SDS011;59072;42.144;25.200;2023-04-15T05:18:56;13.23;;;7.10;;
71148;SDS011;59072;42.144;25.200;2023-04-15T05:21:21;12.68;;;7.50;;
71148;SDS011;59072;42.144;25.200;2023-04-15T05:23:47;18.40;;;10.48;;
71148;SDS011;59072;42.144;25.200;2023-04-15T05:26:13;18.90;;;10.95;;
71148;SDS011;59072;42.144;25.200;2023-04-15T05:28:38;20.13;;;13.50;;
71148;SDS011;59072;42.144;25.200;2023-04-15T05:31:03;25.33;;;13.70;;
71148;SDS011;59072;42.144;25.200;2023-04-15T05:33:30;22.40;;;13.57;;
71148;SDS011;59072;42.144;25.200;2023-04-15T05:35:55;23.40;;;14.23;;
71148;SDS011;59072;42.144;25.200;2023-04-15T05:38:20;19.58;;;12.77;;
71148;SDS011;59072;42.144;25.200;2023-04-15T05:40:46;20.52;;;12.77;;
71148;SDS011;59072;42.144;25.200;2023-04-15T05:43:11;21.27;;;13.18;;
71148;SDS011;59072;42.144;25.200;2023-04-15T05:45:37;27.23;;;15.85;;
71148;SDS011;59072;42.144;25.200;2023-04-15T05:48:02;33.50;;;18.45;;
71148;SDS011;59072;42.144;25.200;2023-04-15T05:50:28;37.30;;;21.52;;
71148;SDS011;59072;42.144;25.200;2023-04-15T05:52:53;33.90;;;19.90;;
71148;SDS011;59072;42.144;25.200;2023-04-15T05:55:19;32.13;;;18.25;;
71148;SDS011;59072;42.144;25.200;2023-04-15T05:57:46;30.80;;;18.83;;
71148;SDS011;59072;42.144;25.200;2023-04-15T06:00:11;29.52;;;17.73;;
71148;SDS011;59072;42.144;25.200;2023-04-15T06:02:38;35.15;;;19.00;;
71148;SDS011;59072;42.144;25.200;2023-04-15T06:05:03;33.45;;;19.38;;
71148;SDS011;59072;42.144;25.200;2023-04-15T06:07:33;34.25;;;19.58;;
71148;SDS011;59072;42.144;25.200;2023-04-15T06:10:02;33.58;;;17.75;;
71148;SDS011;59072;42.144;25.200;2023-04-15T06:12:28;33.10;;;19.58;;
71148;SDS011;59072;42.144;25.200;2023-04-15T06:14:53;33.13;;;18.90;;
71148;SDS011;59072;42.144;25.200;2023-04-15T06:17:19;32.00;;;18.58;;
71148;SDS011;59072;42.144;25.200;2023-04-15T06:19:44;31.73;;;18.17;;
71148;SDS011;59072;42.144;25.200;2023-04-15T06:22:10;30.83;;;18.65;;
71148;SDS011;59072;42.144;25.200;2023-04-15T06:24:35;31.92;;;18.45;;
71148;SDS011;59072;42.144;25.200;2023-04-15T06:27:01;32.10;;;19.17;;
71148;SDS011;59072;42.144;25.200;2023-04-15T06:29:27;29.60;;;17.63;;
71148;SDS011;59072;42.144;25.200;2023-04-15T06:31:53;34.03;;;18.98;;
71148;SDS011;59072;42.144;25.200;2023-04-15T06:34:18;27.80;;;16.70;;
71148;SDS011;59072;42.144;25.200;2023-04-15T06:36:44;26.95;;;17.52;;
71148;SDS011;59072;42.144;25.200;2023-04-15T06:39:09;27.25;;;18.13;;
71148;SDS011;59072;42.144;25.200;2023-04-15T06:41:35;28.73;;;17.70;;
71148;SDS011;59072;42.144;25.200;2023-04-15T06:44:00;20.50;;;13.85;;
71148;SDS011;59072;42.144;25.200;2023-04-15T06:46:26;18.90;;;13.55;;
71148;SDS011;59072;42.144;25.200;2023-04-15T06:48:51;22.20;;;14.30;;
71148;SDS011;59072;42.144;25.200;2023-04-15T06:51:17;25.55;;;15.02;;
71148;SDS011;59072;42.144;25.200;2023-04-15T06:53:43;23.50;;;15.65;;
71148;SDS011;59072;42.144;25.200;2023-04-15T06:56:08;24.75;;;15.43;;
71148;SDS011;59072;42.144;25.200;2023-04-15T06:58:34;24.80;;;15.70;;
71148;SDS011;59072;42.144;25.200;2023-04-15T07:01:00;24.52;;;15.32;;
71148;SDS011;59072;42.144;25.200;2023-04-15T07:03:26;23.30;;;15.23;;
71148;SDS011;59072;42.144;25.200;2023-04-15T07:05:51;24.90;;;15.95;;
71148;SDS011;59072;42.144;25.200;2023-04-15T07:08:18;25.77;;;16.60;;
71148;SDS011;59072;42.144;25.200;2023-04-15T07:10:43;27.42;;;16.30;;
71148;SDS011;59072;42.144;25.200;2023-04-15T07:13:10;24.65;;;16.65;;
71148;SDS011;59072;42.144;25.200;2023-04-15T07:15:35;27.75;;;15.77;;
71148;SDS011;59072;42.144;25.200;2023-04-15T07:18:01;26.13;;;15.50;;
71148;SDS011;59072;42.144;25.200;2023-04-15T07:20:26;21.65;;;14.93;;
71148;SDS011;59072;42.144;25.200;2023-04-15T07:22:52;22.58;;;15.35;;
71148;SDS011;59072;42.144;25.200;2023-04-15T07:25:17;23.52;;;15.38;;
71148;SDS011;59072;42.144;25.200;2023-04-15T07:27:43;25.63;;;16.67;;
71148;SDS011;59072;42.144;25.200;2023-04-15T07:30:08;20.25;;;14.40;;
71148;SDS011;59072;42.144;25.200;2023-04-15T07:32:35;24.55;;;15.98;;
71148;SDS011;59072;42.144;25.200;2023-04-15T07:35:00;23.48;;;14.63;;
71148;SDS011;59072;42.144;25.200;2023-04-15T07:37:27;20.48;;;14.25;;
71148;SDS011;59072;42.144;25.200;2023-04-15T07:39:53;21.33;;;14.65;;
71148;SDS011;59072;42.144;25.200;2023-04-15T07:42:19;25.42;;;15.85;;
71148;SDS011;59072;42.144;25.200;2023-04-15T07:44:44;28.23;;;15.48;;
71148;SDS011;59072;42.144;25.200;2023-04-15T07:47:10;23.58;;;16.08;;
71148;SDS011;59072;42.144;25.200;2023-04-15T07:49:36;22.13;;;13.23;;
71148;SDS011;59072;42.144;25.200;2023-04-15T07:52:02;18.38;;;12.73;;
71148;SDS011;59072;42.144;25.200;2023-04-15T07:54:27;23.17;;;14.80;;
71148;SDS011;59072;42.144;25.200;2023-04-15T07:56:53;20.58;;;12.95;;
71148;SDS011;59072;42.144;25.200;2023-04-15T07:59:18;22.58;;;14.73;;
71148;SDS011;59072;42.144;25.200;2023-04-15T08:01:44;25.17;;;13.82;;
71148;SDS011;59072;42.144;25.200;2023-04-15T08:04:09;24.02;;;14.15;;
71148;SDS011;59072;42.144;25.200;2023-04-15T08:06:34;19.83;;;10.93;;
71148;SDS011;59072;42.144;25.200;2023-04-15T08:09:03;22.77;;;14.27;;
71148;SDS011;59072;42.144;25.200;2023-04-15T08:11:29;25.25;;;15.85;;
71148;SDS011;59072;42.144;25.200;2023-04-15T08:13:55;25.05;;;15.88;;
71148;SDS011;59072;42.144;25.200;2023-04-15T08:16:22;26.02;;;16.30;;
71148;SDS011;59072;42.144;25.200;2023-04-15T08:18:49;31.63;;;17.27;;
71148;SDS011;59072;42.144;25.200;2023-04-15T08:23:43;25.63;;;15.00;;
71148;SDS011;59072;42.144;25.200;2023-04-15T08:26:09;28.25;;;16.52;;
71148;SDS011;59072;42.144;25.200;2023-04-15T08:28:36;26.50;;;15.93;;
71148;SDS011;59072;42.144;25.200;2023-04-15T08:31:03;26.15;;;15.40;;
71148;SDS011;59072;42.144;25.200;2023-04-15T08:33:28;20.92;;;13.65;;
71148;SDS011;59072;42.144;25.200;2023-04-15T08:35:54;23.50;;;13.40;;
71148;SDS011;59072;42.144;25.200;2023-04-15T08:38:19;19.15;;;12.98;;
71148;SDS011;59072;42.144;25.200;2023-04-15T08:40:45;19.52;;;12.50;;
71148;SDS011;59072;42.144;25.200;2023-04-15T08:43:20;21.70;;;12.13;;
71148;SDS011;59072;42.144;25.200;2023-04-15T08:45:51;21.98;;;11.77;;
71148;SDS011;59072;42.144;25.200;2023-04-15T08:48:17;18.73;;;11.35;;
71148;SDS011;59072;42.144;25.200;2023-04-15T08:50:44;18.02;;;10.95;;
71148;SDS011;59072;42.144;25.200;2023-04-15T08:53:10;16.05;;;10.30;;
71148;SDS011;59072;42.144;25.200;2023-04-15T08:55:38;17.73;;;11.30;;
71148;SDS011;59072;42.144;25.200;2023-04-15T08:58:08;17.35;;;10.57;;
71148;SDS011;59072;42.144;25.200;2023-04-15T09:00:35;17.45;;;8.57;;
71148;SDS011;59072;42.144;25.200;2023-04-15T09:03:01;15.82;;;9.32;;
71148;SDS011;59072;42.144;25.200;2023-04-15T09:05:32;14.32;;;7.55;;
71148;SDS011;59072;42.144;25.200;2023-04-15T09:07:57;16.48;;;9.05;;
71148;SDS011;59072;42.144;25.200;2023-04-15T09:10:23;15.10;;;9.10;;
71148;SDS011;59072;42.144;25.200;2023-04-15T09:12:49;15.13;;;7.93;;
71148;SDS011;59072;42.144;25.200;2023-04-15T09:15:14;12.70;;;6.55;;
71148;SDS011;59072;42.144;25.200;2023-04-15T09:17:43;10.98;;;5.72;;
71148;SDS011;59072;42.144;25.200;2023-04-15T09:20:10;11.75;;;5.43;;
71148;SDS011;59072;42.144;25.200;2023-04-15T09:22:38;11.63;;;5.55;;
71148;SDS011;59072;42.144;25.200;2023-04-15T09:25:08;11.27;;;5.93;;
71148;SDS011;59072;42.144;25.200;2023-04-15T09:27:53;9.82;;;5.28;;
71148;SDS011;59072;42.144;25.200;2023-04-15T09:30:20;9.25;;;4.70;;
71148;SDS011;59072;42.144;25.200;2023-04-15T09:32:53;9.50;;;5.13;;
71148;SDS011;59072;42.144;25.200;2023-04-15T09:35:20;11.18;;;5.25;;
71148;SDS011;59072;42.144;25.200;2023-04-15T09:37:50;7.97;;;4.00;;
71148;SDS011;59072;42.144;25.200;2023-04-15T09:40:59;10.55;;;4.35;;
71148;SDS011;59072;42.144;25.200;2023-04-15T09:43:06;7.22;;;3.50;;
71148;SDS011;59072;42.144;25.200;2023-04-15T09:45:33;6.53;;;3.53;;
71148;SDS011;59072;42.144;25.200;2023-04-15T09:48:13;6.80;;;2.58;;
71148;SDS011;59072;42.144;25.200;2023-04-15T09:50:41;10.10;;;4.43;;
71148;SDS011;59072;42.144;25.200;2023-04-15T09:53:11;7.55;;;2.80;;
71148;SDS011;59072;42.144;25.200;2023-04-15T09:55:50;7.28;;;2.80;;
71148;SDS011;59072;42.144;25.200;2023-04-15T09:58:19;5.65;;;1.98;;
71148;SDS011;59072;42.144;25.200;2023-04-15T10:00:46;5.03;;;2.15;;
71148;SDS011;59072;42.144;25.200;2023-04-15T10:03:14;5.90;;;2.42;;
71148;SDS011;59072;42.144;25.200;2023-04-15T10:05:46;6.30;;;2.08;;
71148;SDS011;59072;42.144;25.200;2023-04-15T10:08:13;8.90;;;2.50;;
71148;SDS011;59072;42.144;25.200;2023-04-15T10:10:43;6.05;;;2.20;;
71148;SDS011;59072;42.144;25.200;2023-04-15T10:13:10;6.07;;;2.30;;
71148;SDS011;59072;42.144;25.200;2023-04-15T10:15:37;6.45;;;2.20;;
71148;SDS011;59072;42.144;25.200;2023-04-15T10:18:03;4.90;;;1.92;;
71148;SDS011;59072;42.144;25.200;2023-04-15T10:20:32;6.22;;;1.92;;
71148;SDS011;59072;42.144;25.200;2023-04-15T10:22:59;5.75;;;2.05;;
71148;SDS011;59072;42.144;25.200;2023-04-15T10:25:26;5.13;;;2.03;;
71148;SDS011;59072;42.144;25.200;2023-04-15T10:27:53;7.90;;;2.60;;
71148;SDS011;59072;42.144;25.200;2023-04-15T10:30:20;6.43;;;2.77;;
71148;SDS011;59072;42.144;25.200;2023-04-15T10:32:46;7.28;;;3.35;;
71148;SDS011;59072;42.144;25.200;2023-04-15T10:35:13;4.75;;;2.25;;
71148;SDS011;59072;42.144;25.200;2023-04-15T10:37:40;5.80;;;2.30;;
71148;SDS011;59072;42.144;25.200;2023-04-15T10:43:01;7.40;;;2.50;;
71148;SDS011;59072;42.144;25.200;2023-04-15T10:45:27;7.93;;;2.60;;
71148;SDS011;59072;42.144;25.200;2023-04-15T10:47:57;7.10;;;2.30;;
71148;SDS011;59072;42.144;25.200;2023-04-15T10:50:25;6.93;;;2.20;;
71148;SDS011;59072;42.144;25.200;2023-04-15T10:52:52;7.20;;;2.78;;
71148;SDS011;59072;42.144;25.200;2023-04-15T10:55:19;4.68;;;2.10;;
71148;SDS011;59072;42.144;25.200;2023-04-15T10:57:46;5.38;;;2.08;;
71148;SDS011;59072;42.144;25.200;2023-04-15T11:00:17;7.93;;;2.50;;
71148;SDS011;59072;42.144;25.200;2023-04-15T11:03:04;6.55;;;1.88;;
71148;SDS011;59072;42.144;25.200;2023-04-15T11:08:06;5.38;;;2.28;;
71148;SDS011;59072;42.144;25.200;2023-04-15T11:12:58;5.82;;;1.80;;
71148;SDS011;59072;42.144;25.200;2023-04-15T11:18:14;4.75;;;1.80;;
71148;SDS011;59072;42.144;25.200;2023-04-15T11:23:16;6.38;;;1.90;;
71148;SDS011;59072;42.144;25.200;2023-04-15T11:25:44;8.15;;;2.13;;
71148;SDS011;59072;42.144;25.200;2023-04-15T11:28:11;5.93;;;2.05;;
71148;SDS011;59072;42.144;25.200;2023-04-15T11:30:37;5.38;;;1.80;;
71148;SDS011;59072;42.144;25.200;2023-04-15T11:33:07;4.78;;;1.63;;
71148;SDS011;59072;42.144;25.200;2023-04-15T11:35:34;6.20;;;1.65;;
71148;SDS011;59072;42.144;25.200;2023-04-15T11:38:03;5.20;;;1.70;;
71148;SDS011;59072;42.144;25.200;2023-04-15T11:40:30;5.25;;;1.55;;
71148;SDS011;59072;42.144;25.200;2023-04-15T11:43:16;6.25;;;1.50;;
71148;SDS011;59072;42.144;25.200;2023-04-15T11:46:04;6.55;;;1.90;;
71148;SDS011;59072;42.144;25.200;2023-04-15T11:48:34;4.97;;;1.67;;
71148;SDS011;59072;42.144;25.200;2023-04-15T11:51:01;5.10;;;1.85;;
71148;SDS011;59072;42.144;25.200;2023-04-15T11:53:38;3.45;;;1.33;;
71148;SDS011;59072;42.144;25.200;2023-04-15T11:56:05;3.83;;;1.65;;
71148;SDS011;59072;42.144;25.200;2023-04-15T11:58:33;4.60;;;1.60;;
71148;SDS011;59072;42.144;25.200;2023-04-15T12:01:00;3.90;;;1.30;;
71148;SDS011;59072;42.144;25.200;2023-04-15T12:14:33;8.00;;;1.52;;
71148;SDS011;59072;42.144;25.200;2023-04-15T12:16:59;2.85;;;1.45;;
71148;SDS011;59072;42.144;25.200;2023-04-15T12:22:03;3.78;;;1.77;;
71148;SDS011;59072;42.144;25.200;2023-04-15T12:24:31;3.55;;;1.60;;
71148;SDS011;59072;42.144;25.200;2023-04-15T12:27:00;6.53;;;1.30;;
71148;SDS011;59072;42.144;25.200;2023-04-15T12:29:28;8.63;;;2.70;;
71148;SDS011;59072;42.144;25.200;2023-04-15T12:31:58;4.13;;;1.67;;
71148;SDS011;59072;42.144;25.200;2023-04-15T12:34:33;7.50;;;1.67;;
71148;SDS011;59072;42.144;25.200;2023-04-15T12:37:00;5.03;;;1.45;;
71148;SDS011;59072;42.144;25.200;2023-04-15T12:39:29;3.97;;;1.50;;
71148;SDS011;59072;42.144;25.200;2023-04-15T12:41:56;2.88;;;1.45;;
71148;SDS011;59072;42.144;25.200;2023-04-15T12:44:24;5.18;;;1.63;;
71148;SDS011;59072;42.144;25.200;2023-04-15T12:46:50;6.90;;;2.72;;
71148;SDS011;59072;42.144;25.200;2023-04-15T12:49:19;4.95;;;1.42;;
71148;SDS011;59072;42.144;25.200;2023-04-15T12:51:49;3.63;;;1.63;;
71148;SDS011;59072;42.144;25.200;2023-04-15T12:54:16;3.13;;;1.65;;
71148;SDS011;59072;42.144;25.200;2023-04-15T12:56:42;4.78;;;1.67;;
71148;SDS011;59072;42.144;25.200;2023-04-15T12:59:08;4.60;;;1.60;;
71148;SDS011;59072;42.144;25.200;2023-04-15T13:01:33;5.68;;;1.80;;
71148;SDS011;59072;42.144;25.200;2023-04-15T13:03:59;8.30;;;2.10;;
71148;SDS011;59072;42.144;25.200;2023-04-15T13:06:25;4.68;;;1.48;;
71148;SDS011;59072;42.144;25.200;2023-04-15T13:08:50;6.45;;;1.70;;
71148;SDS011;59072;42.144;25.200;2023-04-15T13:11:18;7.70;;;2.35;;
71148;SDS011;59072;42.144;25.200;2023-04-15T13:13:44;10.57;;;3.33;;
71148;SDS011;59072;42.144;25.200;2023-04-15T13:16:10;4.68;;;2.03;;
71148;SDS011;59072;42.144;25.200;2023-04-15T13:18:35;5.10;;;1.63;;
71148;SDS011;59072;42.144;25.200;2023-04-15T13:21:01;3.83;;;1.92;;
71148;SDS011;59072;42.144;25.200;2023-04-15T13:23:26;7.60;;;2.03;;
71148;SDS011;59072;42.144;25.200;2023-04-15T13:25:52;5.55;;;2.20;;
71148;SDS011;59072;42.144;25.200;2023-04-15T13:28:17;8.73;;;2.50;;
71148;SDS011;59072;42.144;25.200;2023-04-15T13:30:43;6.07;;;2.60;;
71148;SDS011;59072;42.144;25.200;2023-04-15T13:33:09;7.40;;;3.13;;
71148;SDS011;59072;42.144;25.200;2023-04-15T13:35:35;10.40;;;4.70;;
71148;SDS011;59072;42.144;25.200;2023-04-15T13:38:01;7.40;;;3.30;;
71148;SDS011;59072;42.144;25.200;2023-04-15T13:40:26;9.45;;;4.13;;
71148;SDS011;59072;42.144;25.200;2023-04-15T13:42:52;8.82;;;3.40;;
71148;SDS011;59072;42.144;25.200;2023-04-15T13:45:18;8.00;;;3.92;;
71148;SDS011;59072;42.144;25.200;2023-04-15T13:47:43;6.60;;;3.55;;
71148;SDS011;59072;42.144;25.200;2023-04-15T13:50:09;19.08;;;3.50;;
71148;SDS011;59072;42.144;25.200;2023-04-15T13:52:35;6.53;;;3.10;;
71148;SDS011;59072;42.144;25.200;2023-04-15T13:55:01;9.70;;;5.18;;
71148;SDS011;59072;42.144;25.200;2023-04-15T13:57:30;6.00;;;3.40;;
71148;SDS011;59072;42.144;25.200;2023-04-15T13:59:55;8.35;;;2.92;;
71148;SDS011;59072;42.144;25.200;2023-04-15T14:02:22;9.82;;;4.13;;
71148;SDS011;59072;42.144;25.200;2023-04-15T14:04:47;9.32;;;5.45;;
71148;SDS011;59072;42.144;25.200;2023-04-15T14:07:13;9.05;;;2.67;;
71148;SDS011;59072;42.144;25.200;2023-04-15T14:09:38;15.45;;;10.43;;
71148;SDS011;59072;42.144;25.200;2023-04-15T14:12:04;11.68;;;6.60;;
71148;SDS011;59072;42.144;25.200;2023-04-15T14:14:29;9.57;;;4.40;;
71148;SDS011;59072;42.144;25.200;2023-04-15T14:16:55;7.55;;;4.35;;
71148;SDS011;59072;42.144;25.200;2023-04-15T14:19:21;9.65;;;5.25;;
71148;SDS011;59072;42.144;25.200;2023-04-15T14:21:47;7.80;;;4.47;;
71148;SDS011;59072;42.144;25.200;2023-04-15T14:24:13;6.28;;;1.98;;
71148;SDS011;59072;42.144;25.200;2023-04-15T14:26:38;6.78;;;2.33;;
71148;SDS011;59072;42.144;25.200;2023-04-15T14:29:03;7.30;;;2.28;;
71148;SDS011;59072;42.144;25.200;2023-04-15T14:31:29;7.18;;;2.80;;
71148;SDS011;59072;42.144;25.200;2023-04-15T14:33:54;7.05;;;2.70;;
71148;SDS011;59072;42.144;25.200;2023-04-15T14:36:20;8.00;;;3.00;;
71148;SDS011;59072;42.144;25.200;2023-04-15T14:38:45;6.18;;;2.75;;
71148;SDS011;59072;42.144;25.200;2023-04-15T14:41:11;7.10;;;2.53;;
71148;SDS011;59072;42.144;25.200;2023-04-15T14:43:36;6.22;;;2.42;;
71148;SDS011;59072;42.144;25.200;2023-04-15T14:46:02;7.20;;;3.05;;
71148;SDS011;59072;42.144;25.200;2023-04-15T14:48:28;8.13;;;2.05;;
71148;SDS011;59072;42.144;25.200;2023-04-15T14:53:20;7.22;;;1.77;;